createdAt,value
2017-09-02T00:00:55.625Z,43.50
2017-09-02T00:03:23.383Z,43.80
2017-09-02T00:05:51.154Z,43.80
2017-09-02T00:08:18.990Z,43.60
2017-09-02T00:10:46.471Z,43.60
2017-09-02T00:13:13.954Z,43.70
2017-09-02T00:15:41.442Z,43.50
2017-09-02T00:18:08.922Z,44.20
2017-09-02T00:20:36.397Z,44.30
2017-09-02T00:23:03.867Z,46.30
2017-09-02T00:25:31.345Z,45.10
2017-09-02T00:27:58.834Z,45.00
2017-09-02T00:30:26.307Z,45.10
2017-09-02T00:32:53.803Z,45.50
2017-09-02T00:35:21.282Z,46.10
2017-09-02T00:37:48.762Z,46.60
2017-09-02T00:40:16.772Z,47.40
2017-09-02T00:42:44.269Z,46.90
2017-09-02T00:45:11.751Z,46.90
2017-09-02T00:47:39.227Z,46.80
2017-09-02T00:50:06.697Z,47.10
2017-09-02T00:52:34.183Z,47.70
2017-09-02T00:55:01.671Z,48.10
2017-09-02T00:57:29.158Z,48.40
2017-09-02T00:59:56.635Z,49.00
2017-09-02T01:02:24.115Z,48.70
2017-09-02T01:04:51.606Z,48.60
2017-09-02T01:07:19.088Z,48.30
2017-09-02T01:09:46.582Z,47.90
2017-09-02T01:12:14.054Z,47.20
2017-09-02T01:14:41.534Z,47.90
2017-09-02T01:17:09.020Z,47.80
2017-09-02T01:19:36.538Z,48.00
2017-09-02T01:22:04.029Z,47.80
2017-09-02T01:24:31.515Z,47.80
2017-09-02T01:26:59.006Z,47.60
2017-09-02T01:29:26.485Z,47.40
2017-09-02T01:31:53.971Z,48.00
2017-09-02T01:34:21.441Z,48.30
2017-09-02T01:36:48.918Z,48.30
2017-09-02T01:39:16.397Z,48.30
2017-09-02T01:41:43.880Z,48.30
2017-09-02T01:44:11.368Z,48.30
2017-09-02T01:46:38.864Z,48.40
2017-09-02T01:49:06.337Z,48.30
2017-09-02T01:51:33.833Z,48.70
2017-09-02T01:54:01.324Z,48.80
2017-09-02T01:56:28.814Z,49.40
2017-09-02T01:58:56.294Z,49.90
2017-09-02T02:01:23.774Z,49.50
2017-09-02T02:03:51.258Z,49.70
2017-09-02T02:06:18.750Z,49.90
2017-09-02T02:08:46.239Z,50.10
2017-09-02T02:11:13.722Z,49.90
2017-09-02T02:13:41.209Z,49.50
2017-09-02T02:16:08.685Z,49.20
2017-09-02T02:18:36.167Z,49.70
2017-09-02T02:21:03.653Z,49.70
2017-09-02T02:23:31.127Z,49.20
2017-09-02T02:25:58.618Z,49.20
2017-09-02T02:28:26.102Z,49.40
2017-09-02T02:30:53.576Z,49.00
2017-09-02T02:33:21.045Z,48.80
2017-09-02T02:35:48.532Z,49.10
2017-09-02T02:38:16.010Z,49.60
2017-09-02T02:40:43.495Z,50.30
2017-09-02T02:43:10.978Z,49.90
2017-09-02T02:45:38.456Z,49.80
2017-09-02T02:48:05.938Z,49.80
2017-09-02T02:50:33.431Z,49.80
2017-09-02T02:53:00.903Z,49.90
2017-09-02T02:55:28.399Z,50.20
2017-09-02T02:57:55.886Z,50.40
2017-09-02T03:00:23.369Z,50.30
2017-09-02T03:02:50.859Z,50.10
2017-09-02T03:05:18.351Z,49.90
2017-09-02T03:07:45.834Z,49.30
2017-09-02T03:10:13.318Z,49.10
2017-09-02T03:12:40.805Z,49.10
2017-09-02T03:15:08.299Z,49.30
2017-09-02T03:17:35.787Z,49.50
2017-09-02T03:20:03.274Z,49.50
2017-09-02T03:22:30.767Z,50.10
2017-09-02T03:24:58.252Z,50.20
2017-09-02T03:27:25.737Z,50.00
2017-09-02T03:29:53.224Z,50.60
2017-09-02T03:32:20.711Z,50.10
2017-09-02T03:34:48.198Z,49.80
2017-09-02T03:37:15.683Z,50.30
2017-09-02T03:39:43.160Z,50.40
2017-09-02T03:42:10.652Z,50.30
2017-09-02T03:44:38.138Z,50.60
2017-09-02T03:47:05.618Z,50.70
2017-09-02T03:49:33.099Z,50.70
2017-09-02T03:52:00.580Z,50.70
2017-09-02T03:54:28.068Z,50.50
2017-09-02T03:56:55.550Z,50.20
2017-09-02T03:59:23.025Z,50.40
2017-09-02T04:01:50.507Z,50.20
2017-09-02T04:04:17.992Z,50.30
2017-09-02T04:06:45.473Z,50.30
2017-09-02T04:09:12.950Z,50.30
2017-09-02T04:11:40.454Z,50.70
2017-09-02T04:14:07.933Z,50.90
2017-09-02T04:16:35.410Z,51.30
2017-09-02T04:19:02.894Z,51.90
2017-09-02T04:21:30.391Z,51.80
2017-09-02T04:23:57.869Z,52.00
2017-09-02T04:26:25.360Z,52.80
2017-09-02T04:28:52.837Z,52.80
2017-09-02T04:31:20.324Z,52.80
2017-09-02T04:33:47.805Z,52.90
2017-09-02T04:36:15.278Z,53.10
2017-09-02T04:38:42.754Z,53.50
2017-09-02T04:41:10.226Z,54.20
2017-09-02T04:43:37.715Z,54.00
2017-09-02T04:46:05.194Z,54.20
2017-09-02T04:48:32.658Z,54.50
2017-09-02T04:51:00.143Z,54.90
2017-09-02T04:53:27.632Z,55.80
2017-09-02T04:55:55.112Z,55.50
2017-09-02T04:58:22.609Z,56.00
2017-09-02T05:00:50.092Z,56.80
2017-09-02T05:03:17.570Z,57.20
2017-09-02T05:05:45.054Z,57.40
2017-09-02T05:08:12.544Z,57.00
2017-09-02T05:10:40.043Z,57.20
2017-09-02T05:13:07.518Z,58.00
2017-09-02T05:15:34.990Z,58.10
2017-09-02T05:18:02.465Z,58.00
2017-09-02T05:20:29.942Z,58.10
2017-09-02T05:22:58.323Z,58.10
2017-09-02T05:25:26.571Z,58.00
2017-09-02T05:27:54.051Z,57.90
2017-09-02T05:30:21.539Z,58.10
2017-09-02T05:32:49.031Z,58.20
2017-09-02T05:35:16.505Z,58.10
2017-09-02T05:37:43.980Z,57.60
2017-09-02T05:40:11.480Z,56.90
2017-09-02T05:42:38.953Z,57.30
2017-09-02T05:45:06.452Z,56.90
2017-09-02T05:47:33.939Z,56.80
2017-09-02T05:50:01.430Z,56.70
2017-09-02T05:52:28.931Z,57.10
2017-09-02T05:54:56.415Z,57.40
2017-09-02T05:57:23.923Z,58.10
2017-09-02T05:59:51.406Z,59.80
2017-09-02T06:02:18.898Z,60.20
2017-09-02T06:04:46.391Z,60.40
2017-09-02T06:07:13.861Z,60.50
2017-09-02T06:09:41.342Z,60.30
2017-09-02T06:12:08.823Z,59.70
2017-09-02T06:14:36.308Z,59.40
2017-09-02T06:17:03.786Z,59.60
2017-09-02T06:19:31.276Z,59.90
2017-09-02T06:21:58.776Z,60.40
2017-09-02T06:24:26.267Z,60.70
2017-09-02T06:26:53.758Z,60.20
2017-09-02T06:29:21.256Z,60.20
2017-09-02T06:31:48.739Z,59.90
2017-09-02T06:34:16.208Z,59.80
2017-09-02T06:36:43.687Z,59.40
2017-09-02T06:39:11.170Z,59.00
2017-09-02T06:41:38.752Z,58.60
2017-09-02T06:44:06.230Z,57.80
2017-09-02T06:46:33.720Z,57.20
2017-09-02T06:49:01.196Z,57.00
2017-09-02T06:51:28.687Z,56.80
2017-09-02T06:53:56.179Z,61.20
2017-09-02T06:56:23.680Z,64.70
2017-09-02T06:58:51.162Z,62.20
2017-09-02T07:01:18.650Z,62.20
2017-09-02T07:03:46.126Z,62.60
2017-09-02T07:06:13.610Z,61.90
2017-09-02T07:08:41.146Z,60.60
2017-09-02T07:11:08.657Z,57.70
2017-09-02T07:13:36.145Z,54.70
2017-09-02T07:16:03.641Z,54.80
2017-09-02T07:18:31.156Z,54.40
2017-09-02T07:20:58.637Z,53.90
2017-09-02T07:23:26.119Z,52.90
2017-09-02T07:25:53.603Z,52.20
2017-09-02T07:28:21.109Z,51.70
2017-09-02T07:30:48.593Z,50.70
2017-09-02T07:33:16.074Z,50.30
2017-09-02T07:35:43.569Z,49.90
2017-09-02T07:38:11.058Z,49.20
2017-09-02T07:40:38.551Z,49.20
2017-09-02T07:43:06.043Z,49.20
2017-09-02T07:45:33.543Z,49.90
2017-09-02T07:48:01.032Z,49.00
2017-09-02T07:50:28.526Z,47.90
2017-09-02T07:52:56.015Z,47.70
2017-09-02T07:55:23.499Z,47.50
2017-09-02T07:57:50.982Z,47.00
2017-09-02T08:00:18.462Z,47.60
2017-09-02T08:02:45.948Z,46.90
2017-09-02T08:05:13.445Z,46.60
2017-09-02T08:07:40.943Z,47.50
2017-09-02T08:10:08.431Z,46.30
2017-09-02T08:12:35.932Z,45.60
2017-09-02T08:15:03.415Z,46.20
2017-09-02T08:17:30.898Z,46.90
2017-09-02T08:19:58.388Z,45.80
2017-09-02T08:22:25.875Z,45.70
2017-09-02T08:24:53.367Z,45.90
2017-09-02T08:27:20.853Z,45.80
2017-09-02T08:29:48.338Z,44.20
2017-09-02T08:32:15.830Z,44.70
2017-09-02T08:34:43.320Z,43.50
2017-09-02T08:37:10.821Z,43.80
2017-09-02T08:39:38.306Z,44.50
2017-09-02T08:42:05.799Z,45.20
2017-09-02T08:44:33.300Z,45.60
2017-09-02T08:47:00.794Z,44.90
2017-09-02T08:49:28.297Z,45.40
2017-09-02T08:51:55.782Z,45.80
2017-09-02T08:54:23.261Z,46.90
2017-09-02T08:56:50.742Z,44.90
2017-09-02T08:59:18.231Z,44.00
2017-09-02T09:01:45.718Z,44.30
2017-09-02T09:04:13.208Z,43.50
2017-09-02T09:06:40.698Z,44.80
2017-09-02T09:09:08.182Z,48.70
2017-09-02T09:11:35.666Z,49.20
2017-09-02T09:14:03.183Z,44.30
2017-09-02T09:16:30.675Z,44.40
2017-09-02T09:18:58.169Z,47.80
2017-09-02T09:21:25.658Z,47.70
2017-09-02T09:23:53.143Z,47.70
2017-09-02T09:26:20.631Z,47.40
2017-09-02T09:28:48.123Z,47.30
2017-09-02T09:31:15.610Z,47.20
2017-09-02T09:33:43.380Z,45.90
2017-09-02T09:36:11.522Z,43.70
2017-09-02T09:38:39.633Z,42.10
2017-09-02T09:41:07.708Z,42.00
2017-09-02T09:43:35.479Z,39.80
2017-09-02T09:46:03.272Z,43.20
2017-09-02T09:48:31.246Z,46.30
2017-09-02T09:50:58.870Z,47.20
2017-09-02T09:53:26.844Z,53.20
2017-09-02T09:55:54.913Z,58.90
2017-09-02T09:58:22.590Z,61.90
2017-09-02T10:00:50.479Z,61.90
2017-09-02T10:03:18.313Z,59.10
2017-09-02T10:05:45.802Z,59.00
2017-09-02T10:08:13.286Z,58.50
2017-09-02T10:10:40.779Z,57.00
2017-09-02T10:13:08.253Z,55.30
2017-09-02T10:15:35.738Z,57.80
2017-09-02T10:18:03.223Z,59.60
2017-09-02T10:20:30.937Z,59.50
2017-09-02T10:22:58.419Z,60.90
2017-09-02T10:25:25.889Z,59.10
2017-09-02T10:27:53.376Z,60.70
2017-09-02T10:30:20.853Z,59.70
2017-09-02T10:32:48.329Z,60.40
2017-09-02T10:35:15.818Z,62.40
2017-09-02T10:37:43.306Z,61.60
2017-09-02T10:40:10.791Z,59.70
2017-09-02T10:42:38.283Z,61.30
2017-09-02T10:45:05.784Z,60.30
2017-09-02T10:47:33.280Z,60.40
2017-09-02T10:50:00.757Z,59.90
2017-09-02T10:52:28.233Z,59.80
2017-09-02T10:54:55.716Z,59.50
2017-09-02T10:57:23.193Z,60.20
2017-09-02T10:59:50.711Z,60.90
2017-09-02T11:02:18.191Z,61.40
2017-09-02T11:04:45.669Z,61.50
2017-09-02T11:07:13.185Z,57.90
2017-09-02T11:09:40.667Z,57.90
2017-09-02T11:12:08.986Z,63.10
2017-09-02T11:14:36.470Z,62.90
2017-09-02T11:17:03.970Z,59.80
2017-09-02T11:19:31.459Z,61.70
2017-09-02T11:21:58.942Z,63.70
2017-09-02T11:24:26.441Z,66.60
2017-09-02T11:26:53.936Z,65.70
2017-09-02T11:29:21.427Z,68.20
2017-09-02T11:31:48.918Z,66.60
2017-09-02T11:34:16.403Z,68.40
2017-09-02T11:36:43.887Z,70.20
2017-09-02T11:39:11.376Z,70.90
2017-09-02T11:41:38.859Z,71.00
2017-09-02T11:44:06.338Z,71.50
2017-09-02T11:46:33.822Z,70.00
2017-09-02T11:49:01.303Z,70.30
2017-09-02T11:51:28.808Z,69.30
2017-09-02T11:53:56.306Z,62.50
2017-09-02T11:56:23.787Z,63.40
2017-09-02T11:58:51.270Z,61.10
2017-09-02T12:01:18.735Z,60.80
2017-09-02T12:03:46.234Z,60.40
2017-09-02T12:06:13.727Z,60.00
2017-09-02T12:08:41.212Z,59.90
2017-09-02T12:11:08.696Z,61.40
2017-09-02T12:13:36.178Z,62.70
2017-09-02T12:16:03.662Z,63.10
2017-09-02T12:18:31.385Z,63.70
2017-09-02T12:20:58.874Z,66.00
2017-09-02T12:23:26.385Z,64.60
2017-09-02T12:25:53.878Z,64.60
2017-09-02T12:28:21.364Z,61.60
2017-09-02T12:30:48.841Z,60.60
2017-09-02T12:33:16.709Z,59.80
2017-09-02T12:35:44.302Z,60.60
2017-09-02T12:38:11.891Z,63.20
2017-09-02T12:40:39.378Z,63.80
2017-09-02T12:43:06.867Z,64.10
2017-09-02T12:45:34.446Z,65.80
2017-09-02T12:48:01.967Z,67.60
2017-09-02T12:50:29.462Z,68.00
2017-09-02T12:52:56.956Z,70.00
2017-09-02T12:55:24.452Z,70.10
2017-09-02T12:57:51.951Z,70.70
2017-09-02T13:00:19.457Z,70.60
2017-09-02T13:02:46.931Z,70.60
2017-09-02T13:05:14.422Z,70.10
2017-09-02T13:07:41.903Z,70.60
2017-09-02T13:10:09.377Z,69.10
2017-09-02T13:12:36.863Z,69.90
2017-09-02T13:15:04.356Z,71.40
2017-09-02T13:17:31.846Z,69.30
2017-09-02T13:19:59.330Z,70.10
2017-09-02T13:22:26.815Z,69.60
2017-09-02T13:24:54.311Z,68.70
2017-09-02T13:27:21.795Z,67.30
2017-09-02T13:29:49.293Z,69.50
2017-09-02T13:32:16.776Z,66.40
2017-09-02T13:34:44.269Z,66.30
2017-09-02T13:37:11.750Z,66.10
2017-09-02T13:39:39.231Z,66.30
2017-09-02T13:42:06.710Z,67.50
2017-09-02T13:44:34.183Z,66.30
2017-09-02T13:47:01.657Z,66.70
2017-09-02T13:49:29.138Z,67.00
2017-09-02T13:51:56.620Z,67.70
2017-09-02T13:54:24.111Z,68.10
2017-09-02T13:56:51.596Z,67.70
2017-09-02T13:59:19.091Z,67.80
2017-09-02T14:01:46.578Z,68.90
2017-09-02T14:04:14.074Z,67.20
2017-09-02T14:06:41.568Z,68.00
2017-09-02T14:09:09.038Z,69.40
2017-09-02T14:11:36.522Z,68.10
2017-09-02T14:14:04.003Z,68.80
2017-09-02T14:16:31.486Z,66.90
2017-09-02T14:18:58.962Z,66.20
2017-09-02T14:21:26.427Z,66.70
2017-09-02T14:23:53.911Z,67.20
2017-09-02T14:26:21.381Z,68.90
2017-09-02T14:28:48.858Z,69.20
2017-09-02T14:31:16.352Z,71.00
2017-09-02T14:33:43.836Z,71.20
2017-09-02T14:36:11.327Z,71.20
2017-09-02T14:38:38.810Z,72.00
2017-09-02T14:41:06.300Z,83.70
2017-09-02T14:43:51.750Z,76.30
2017-09-02T14:46:19.242Z,77.50
2017-09-02T14:48:46.736Z,75.90
2017-09-02T14:51:14.218Z,73.40
2017-09-02T14:53:41.707Z,75.60
2017-09-02T14:56:09.194Z,76.40
2017-09-02T14:58:36.678Z,77.60
2017-09-02T15:01:04.169Z,77.60
2017-09-02T15:03:31.664Z,77.50
2017-09-02T15:05:59.156Z,76.90
2017-09-02T15:08:26.632Z,77.90
2017-09-02T15:10:54.110Z,75.70
2017-09-02T15:13:21.603Z,77.10
2017-09-02T15:15:49.090Z,80.20
2017-09-02T15:18:16.565Z,78.90
2017-09-02T15:20:44.043Z,79.60
2017-09-02T15:23:11.537Z,77.60
2017-09-02T15:25:39.017Z,77.40
2017-09-02T15:28:06.490Z,75.60
2017-09-02T15:30:33.983Z,75.90
2017-09-02T15:33:01.472Z,75.70
2017-09-02T15:35:28.953Z,80.10
2017-09-02T15:37:56.433Z,82.70
2017-09-02T15:40:23.915Z,82.60
2017-09-02T15:42:51.402Z,81.90
2017-09-02T15:45:18.899Z,82.40
2017-09-02T15:47:46.390Z,80.50
2017-09-02T15:50:13.873Z,81.70
2017-09-02T15:52:41.350Z,78.70
2017-09-02T15:55:08.842Z,79.60
2017-09-02T15:57:36.330Z,80.50
2017-09-02T16:00:03.809Z,82.20
2017-09-02T16:02:31.303Z,82.80
2017-09-02T16:04:58.794Z,81.60
2017-09-02T16:07:26.286Z,83.50
2017-09-02T16:09:53.773Z,84.40
2017-09-02T16:12:21.270Z,84.10
2017-09-02T16:14:48.751Z,85.40
2017-09-02T16:17:16.242Z,83.30
2017-09-02T16:19:43.734Z,80.60
2017-09-02T16:22:11.215Z,82.90
2017-09-02T16:24:38.695Z,84.50
2017-09-02T16:27:06.186Z,83.10
2017-09-02T16:29:33.693Z,81.80
2017-09-02T16:32:01.186Z,82.80
2017-09-02T16:34:28.676Z,82.80
2017-09-02T16:36:56.167Z,82.10
2017-09-02T16:39:23.662Z,81.40
2017-09-02T16:41:51.142Z,82.60
2017-09-02T16:44:18.614Z,83.10
2017-09-02T16:46:46.402Z,84.80
2017-09-02T16:49:15.444Z,84.80
2017-09-02T16:51:43.124Z,82.70
2017-09-02T16:54:10.862Z,81.80
2017-09-02T16:56:39.585Z,82.70
2017-09-02T16:59:08.929Z,83.70
2017-09-02T17:01:38.237Z,82.20
2017-09-02T17:04:06.366Z,79.20
2017-09-02T17:06:33.838Z,81.20
2017-09-02T17:09:01.319Z,81.10
2017-09-02T17:11:29.554Z,79.50
2017-09-02T17:13:58.123Z,81.90
2017-09-02T17:16:26.248Z,83.30
2017-09-02T17:18:56.205Z,83.30
2017-09-02T17:21:29.720Z,84.80
2017-09-02T17:23:57.686Z,83.90
2017-09-02T17:26:25.162Z,81.80
2017-09-02T17:28:52.651Z,84.50
2017-09-02T17:31:20.170Z,83.60
2017-09-02T17:33:47.653Z,81.60
2017-09-02T17:36:15.125Z,81.50
2017-09-02T17:38:42.602Z,83.80
2017-09-02T17:41:11.982Z,84.50
2017-09-02T17:43:40.621Z,83.30
2017-09-02T17:46:09.062Z,80.60
2017-09-02T17:48:37.190Z,80.40
2017-09-02T17:51:05.599Z,79.90
2017-09-02T17:53:34.039Z,80.70
2017-09-02T17:56:02.194Z,77.60
2017-09-02T17:58:31.389Z,72.30
2017-09-02T18:01:01.255Z,66.30
2017-09-02T18:03:31.027Z,66.30
2017-09-02T18:05:59.030Z,65.60
2017-09-02T18:08:27.797Z,65.40
2017-09-02T18:10:56.074Z,66.50
2017-09-02T18:13:25.858Z,66.80
2017-09-02T18:15:54.531Z,67.30
2017-09-02T18:18:22.027Z,65.60
2017-09-02T18:20:49.514Z,60.00
2017-09-02T18:23:17.020Z,61.90
2017-09-02T18:25:44.508Z,63.50
2017-09-02T18:28:11.985Z,64.30
2017-09-02T18:30:39.462Z,68.60
2017-09-02T18:33:06.956Z,64.70
2017-09-02T18:35:34.547Z,67.40
2017-09-02T18:38:03.180Z,64.30
2017-09-02T18:40:30.666Z,72.70
2017-09-02T18:42:58.179Z,64.20
2017-09-02T18:45:25.666Z,65.30
2017-09-02T18:47:53.160Z,64.90
2017-09-02T18:50:20.654Z,66.40
2017-09-02T18:52:48.143Z,70.30
2017-09-02T18:55:15.630Z,72.60
2017-09-02T18:57:43.113Z,76.20
2017-09-02T19:00:10.600Z,71.60
2017-09-02T19:02:38.094Z,72.50
2017-09-02T19:05:05.590Z,67.60
2017-09-02T19:07:33.066Z,70.70
2017-09-02T19:10:00.559Z,68.30
2017-09-02T19:12:28.037Z,75.90
2017-09-02T19:14:55.527Z,67.50
2017-09-02T19:17:23.033Z,66.50
2017-09-02T19:19:50.558Z,70.00
2017-09-02T19:22:18.056Z,69.00
2017-09-02T19:24:45.548Z,71.80
2017-09-02T19:27:13.027Z,72.20
2017-09-02T19:29:40.524Z,73.20
2017-09-02T19:32:08.028Z,73.40
2017-09-02T19:34:35.519Z,75.90
2017-09-02T19:37:02.995Z,71.40
2017-09-02T19:39:30.478Z,70.80
2017-09-02T19:41:57.987Z,71.50
2017-09-02T19:44:25.486Z,74.50
2017-09-02T19:46:52.984Z,72.50
2017-09-02T19:49:20.474Z,74.20
2017-09-02T19:51:47.945Z,74.00
2017-09-02T19:54:15.425Z,74.20
2017-09-02T19:56:42.921Z,75.60
2017-09-02T19:59:10.415Z,77.70
2017-09-02T20:01:37.907Z,76.60
2017-09-02T20:04:06.117Z,77.30
2017-09-02T20:06:34.456Z,77.60
2017-09-02T20:09:02.569Z,76.80
2017-09-02T20:11:30.922Z,77.00
2017-09-02T20:13:58.413Z,77.50
2017-09-02T20:16:25.891Z,77.10
2017-09-02T20:18:53.384Z,78.70
2017-09-02T20:21:20.883Z,78.00
2017-09-02T20:23:48.375Z,79.50
2017-09-02T20:26:15.857Z,77.30
2017-09-02T20:28:43.342Z,78.10
2017-09-02T20:31:10.827Z,78.00
2017-09-02T20:33:38.315Z,78.80
2017-09-02T20:36:05.806Z,78.30
2017-09-02T20:38:33.297Z,78.60
2017-09-02T20:41:00.782Z,74.40
2017-09-02T20:43:28.275Z,75.40
2017-09-02T20:45:55.755Z,73.60
2017-09-02T20:48:23.247Z,73.90
2017-09-02T20:50:50.734Z,74.20
2017-09-02T20:53:18.215Z,76.20
2017-09-02T20:55:45.686Z,74.00
2017-09-02T20:58:13.164Z,75.30
2017-09-02T21:00:40.643Z,74.00
2017-09-02T21:03:08.133Z,73.80
2017-09-02T21:05:35.605Z,73.50
2017-09-02T21:08:03.090Z,72.10
2017-09-02T21:10:30.574Z,72.40
2017-09-02T21:12:58.055Z,73.60
2017-09-02T21:15:26.194Z,70.20
2017-09-02T21:17:53.915Z,71.30
2017-09-02T21:20:21.636Z,70.80
2017-09-02T21:22:49.290Z,69.80
2017-09-02T21:25:17.051Z,69.00
2017-09-02T21:27:44.710Z,69.80
2017-09-02T21:30:12.333Z,70.40
2017-09-02T21:32:39.970Z,68.20
2017-09-02T21:35:07.808Z,67.30
2017-09-02T21:37:35.484Z,70.10
2017-09-02T21:40:03.232Z,70.20
2017-09-02T21:42:30.795Z,70.10
2017-09-02T21:44:58.301Z,70.20
2017-09-02T21:47:25.895Z,70.80
2017-09-02T21:49:53.514Z,72.80
2017-09-02T21:52:21.147Z,72.60
2017-09-02T21:54:48.654Z,71.60
2017-09-02T21:57:16.221Z,73.90
2017-09-02T21:59:43.832Z,72.90
2017-09-02T22:02:11.484Z,73.00
2017-09-02T22:04:39.118Z,74.30
2017-09-02T22:07:06.739Z,73.00
2017-09-02T22:09:34.495Z,74.10
2017-09-02T22:12:02.240Z,74.00
2017-09-02T22:14:29.849Z,74.00
2017-09-02T22:16:57.347Z,74.50
2017-09-02T22:19:24.852Z,71.80
2017-09-02T22:21:52.495Z,71.50
2017-09-02T22:24:20.248Z,71.10
2017-09-02T22:26:47.933Z,73.50
2017-09-02T22:29:15.513Z,73.00
2017-09-02T22:31:43.143Z,72.50
2017-09-02T22:34:10.904Z,71.50
2017-09-02T22:36:38.552Z,74.00
2017-09-02T22:39:06.056Z,74.30
2017-09-02T22:41:33.538Z,74.60
2017-09-02T22:44:01.149Z,75.40
2017-09-02T22:46:28.904Z,76.50
2017-09-02T22:48:56.579Z,76.00
2017-09-02T22:51:24.195Z,77.50
2017-09-02T22:53:51.690Z,78.60
2017-09-02T22:56:19.456Z,79.70
2017-09-02T22:58:47.062Z,79.10
2017-09-02T23:01:14.802Z,79.40
2017-09-02T23:03:42.303Z,78.80
2017-09-02T23:06:10.012Z,79.80
2017-09-02T23:08:37.682Z,80.60
2017-09-02T23:11:05.294Z,81.30
2017-09-02T23:13:32.929Z,82.50
2017-09-02T23:16:00.549Z,82.40
2017-09-02T23:18:28.223Z,83.50
2017-09-02T23:20:55.900Z,85.80
2017-09-02T23:23:23.389Z,81.30
2017-09-02T23:25:50.867Z,83.00
2017-09-02T23:28:18.365Z,83.10
2017-09-02T23:30:45.846Z,85.60
2017-09-02T23:33:13.343Z,87.20
2017-09-02T23:35:40.823Z,86.50
2017-09-02T23:38:08.299Z,85.60
2017-09-02T23:40:35.783Z,85.60
2017-09-02T23:43:03.258Z,87.60
2017-09-02T23:45:30.742Z,89.30
2017-09-02T23:47:58.214Z,88.40
2017-09-02T23:50:25.701Z,89.10
2017-09-02T23:52:53.170Z,88.50
2017-09-02T23:55:20.645Z,87.70
2017-09-02T23:57:48.131Z,88.60
